sensor_id;sensor_type;location;lat;lon;timestamp;temperature;humidity
78461;SHT31;67755;51.986;5.696;2023-07-02T00:01:31;21.7;61.2
78461;SHT31;67755;51.986;5.696;2023-07-02T00:04:00;21.7;60.9
78461;SHT31;67755;51.986;5.696;2023-07-02T00:06:30;21.7;60.9
78461;SHT31;67755;51.986;5.696;2023-07-02T00:09:05;21.7;61.2
78461;SHT31;67755;51.986;5.696;2023-07-02T00:11:38;21.7;61.1
78461;SHT31;67755;51.986;5.696;2023-07-02T00:14:08;21.7;61.3
78461;SHT31;67755;51.986;5.696;2023-07-02T00:16:42;21.7;61.6
78461;SHT31;67755;51.986;5.696;2023-07-02T00:19:13;21.7;62.2
78461;SHT31;67755;51.986;5.696;2023-07-02T00:21:43;21.7;61.8
78461;SHT31;67755;51.986;5.696;2023-07-02T00:24:12;21.7;61.3
78461;SHT31;67755;51.986;5.696;2023-07-02T00:26:43;21.7;62.3
78461;SHT31;67755;51.986;5.696;2023-07-02T00:29:13;21.7;59.0
78461;SHT31;67755;51.986;5.696;2023-07-02T00:31:44;21.7;59.8
78461;SHT31;67755;51.986;5.696;2023-07-02T00:34:14;21.7;59.5
78461;SHT31;67755;51.986;5.696;2023-07-02T00:36:43;21.6;58.9
78461;SHT31;67755;51.986;5.696;2023-07-02T00:39:13;21.6;59.4
78461;SHT31;67755;51.986;5.696;2023-07-02T00:41:44;21.6;59.7
78461;SHT31;67755;51.986;5.696;2023-07-02T00:44:14;21.6;59.9
78461;SHT31;67755;51.986;5.696;2023-07-02T00:46:44;21.5;59.5
78461;SHT31;67755;51.986;5.696;2023-07-02T00:49:14;21.5;59.3
78461;SHT31;67755;51.986;5.696;2023-07-02T00:51:44;21.5;58.9
78461;SHT31;67755;51.986;5.696;2023-07-02T00:54:14;21.5;59.2
78461;SHT31;67755;51.986;5.696;2023-07-02T00:56:43;21.4;59.1
78461;SHT31;67755;51.986;5.696;2023-07-02T00:59:13;21.4;59.5
78461;SHT31;67755;51.986;5.696;2023-07-02T01:01:43;21.4;60.1
78461;SHT31;67755;51.986;5.696;2023-07-02T01:04:18;21.4;60.1
78461;SHT31;67755;51.986;5.696;2023-07-02T01:06:53;21.3;60.0
78461;SHT31;67755;51.986;5.696;2023-07-02T01:09:25;21.3;60.3
78461;SHT31;67755;51.986;5.696;2023-07-02T01:11:59;21.3;59.7
78461;SHT31;67755;51.986;5.696;2023-07-02T01:14:33;21.3;59.4
78461;SHT31;67755;51.986;5.696;2023-07-02T01:17:03;21.2;59.0
78461;SHT31;67755;51.986;5.696;2023-07-02T01:19:42;21.2;58.8
78461;SHT31;67755;51.986;5.696;2023-07-02T01:22:13;21.2;58.8
78461;SHT31;67755;51.986;5.696;2023-07-02T01:24:43;21.2;58.7
78461;SHT31;67755;51.986;5.696;2023-07-02T01:27:15;21.2;58.8
78461;SHT31;67755;51.986;5.696;2023-07-02T01:29:45;21.1;58.8
78461;SHT31;67755;51.986;5.696;2023-07-02T01:32:14;21.1;58.7
78461;SHT31;67755;51.986;5.696;2023-07-02T01:34:46;21.1;58.7
78461;SHT31;67755;51.986;5.696;2023-07-02T01:37:16;21.1;58.4
78461;SHT31;67755;51.986;5.696;2023-07-02T01:39:46;21.1;57.9
78461;SHT31;67755;51.986;5.696;2023-07-02T01:42:17;21.0;58.6
78461;SHT31;67755;51.986;5.696;2023-07-02T01:44:49;21.0;58.2
78461;SHT31;67755;51.986;5.696;2023-07-02T01:47:19;21.0;58.5
78461;SHT31;67755;51.986;5.696;2023-07-02T01:49:50;21.0;58.5
78461;SHT31;67755;51.986;5.696;2023-07-02T01:52:21;20.9;58.2
78461;SHT31;67755;51.986;5.696;2023-07-02T01:54:51;20.9;58.3
78461;SHT31;67755;51.986;5.696;2023-07-02T01:57:21;20.8;58.2
78461;SHT31;67755;51.986;5.696;2023-07-02T01:59:50;20.8;58.2
78461;SHT31;67755;51.986;5.696;2023-07-02T02:02:20;20.8;57.8
78461;SHT31;67755;51.986;5.696;2023-07-02T02:04:49;20.7;57.8
78461;SHT31;67755;51.986;5.696;2023-07-02T02:07:19;20.7;57.7
78461;SHT31;67755;51.986;5.696;2023-07-02T02:09:49;20.7;58.2
78461;SHT31;67755;51.986;5.696;2023-07-02T02:12:18;20.6;57.9
78461;SHT31;67755;51.986;5.696;2023-07-02T02:14:48;20.6;57.9
78461;SHT31;67755;51.986;5.696;2023-07-02T02:17:17;20.5;57.8
78461;SHT31;67755;51.986;5.696;2023-07-02T02:19:47;20.5;58.1
78461;SHT31;67755;51.986;5.696;2023-07-02T02:22:17;20.5;57.9
78461;SHT31;67755;51.986;5.696;2023-07-02T02:24:46;20.4;58.3
78461;SHT31;67755;51.986;5.696;2023-07-02T02:27:16;20.4;58.4
78461;SHT31;67755;51.986;5.696;2023-07-02T02:29:45;20.4;58.9
78461;SHT31;67755;51.986;5.696;2023-07-02T02:32:16;20.3;58.7
78461;SHT31;67755;51.986;5.696;2023-07-02T02:34:48;20.3;58.8
78461;SHT31;67755;51.986;5.696;2023-07-02T02:37:18;20.3;58.9
78461;SHT31;67755;51.986;5.696;2023-07-02T02:39:49;20.2;59.1
78461;SHT31;67755;51.986;5.696;2023-07-02T02:42:19;20.2;59.4
78461;SHT31;67755;51.986;5.696;2023-07-02T02:44:48;20.2;59.4
78461;SHT31;67755;51.986;5.696;2023-07-02T02:47:18;20.2;59.2
78461;SHT31;67755;51.986;5.696;2023-07-02T02:49:48;20.1;59.4
78461;SHT31;67755;51.986;5.696;2023-07-02T02:52:17;20.1;59.2
78461;SHT31;67755;51.986;5.696;2023-07-02T02:54:47;20.1;59.8
78461;SHT31;67755;51.986;5.696;2023-07-02T02:57:17;20.1;59.3
78461;SHT31;67755;51.986;5.696;2023-07-02T02:59:46;20.0;59.7
78461;SHT31;67755;51.986;5.696;2023-07-02T03:02:16;20.0;59.7
78461;SHT31;67755;51.986;5.696;2023-07-02T03:04:45;20.0;60.1
78461;SHT31;67755;51.986;5.696;2023-07-02T03:07:16;20.0;60.4
78461;SHT31;67755;51.986;5.696;2023-07-02T03:09:46;20.0;60.7
78461;SHT31;67755;51.986;5.696;2023-07-02T03:12:17;20.0;60.7
78461;SHT31;67755;51.986;5.696;2023-07-02T03:14:47;20.0;60.5
78461;SHT31;67755;51.986;5.696;2023-07-02T03:17:20;20.0;60.8
78461;SHT31;67755;51.986;5.696;2023-07-02T03:19:50;19.9;60.6
78461;SHT31;67755;51.986;5.696;2023-07-02T03:22:19;19.9;60.8
78461;SHT31;67755;51.986;5.696;2023-07-02T03:24:49;19.9;60.7
78461;SHT31;67755;51.986;5.696;2023-07-02T03:27:19;19.9;60.6
78461;SHT31;67755;51.986;5.696;2023-07-02T03:29:48;19.9;60.8
78461;SHT31;67755;51.986;5.696;2023-07-02T03:32:18;19.9;60.9
78461;SHT31;67755;51.986;5.696;2023-07-02T03:34:48;19.9;61.0
78461;SHT31;67755;51.986;5.696;2023-07-02T03:37:18;19.9;61.4
78461;SHT31;67755;51.986;5.696;2023-07-02T03:39:48;19.9;61.2
78461;SHT31;67755;51.986;5.696;2023-07-02T03:42:17;19.9;61.2
78461;SHT31;67755;51.986;5.696;2023-07-02T03:44:47;19.9;61.0
78461;SHT31;67755;51.986;5.696;2023-07-02T03:47:16;19.8;61.0
78461;SHT31;67755;51.986;5.696;2023-07-02T03:49:47;19.8;60.9
78461;SHT31;67755;51.986;5.696;2023-07-02T03:52:17;19.8;60.9
78461;SHT31;67755;51.986;5.696;2023-07-02T03:54:46;19.8;60.0
78461;SHT31;67755;51.986;5.696;2023-07-02T03:57:16;19.8;60.4
78461;SHT31;67755;51.986;5.696;2023-07-02T03:59:46;19.8;60.3
78461;SHT31;67755;51.986;5.696;2023-07-02T04:02:15;19.8;60.3
78461;SHT31;67755;51.986;5.696;2023-07-02T04:04:45;19.8;60.0
78461;SHT31;67755;51.986;5.696;2023-07-02T04:07:17;19.8;59.6
78461;SHT31;67755;51.986;5.696;2023-07-02T04:09:46;19.8;60.0
78461;SHT31;67755;51.986;5.696;2023-07-02T04:12:18;19.7;59.7
78461;SHT31;67755;51.986;5.696;2023-07-02T04:14:47;19.7;59.9
78461;SHT31;67755;51.986;5.696;2023-07-02T04:17:17;19.7;60.2
78461;SHT31;67755;51.986;5.696;2023-07-02T04:19:46;19.7;60.4
78461;SHT31;67755;51.986;5.696;2023-07-02T04:22:16;19.7;60.3
78461;SHT31;67755;51.986;5.696;2023-07-02T04:24:46;19.7;60.2
78461;SHT31;67755;51.986;5.696;2023-07-02T04:27:17;19.7;59.9
78461;SHT31;67755;51.986;5.696;2023-07-02T04:29:48;19.6;60.7
78461;SHT31;67755;51.986;5.696;2023-07-02T04:32:18;19.6;60.4
78461;SHT31;67755;51.986;5.696;2023-07-02T04:34:48;19.6;60.2
78461;SHT31;67755;51.986;5.696;2023-07-02T04:37:18;19.6;60.4
78461;SHT31;67755;51.986;5.696;2023-07-02T04:39:49;19.6;60.5
78461;SHT31;67755;51.986;5.696;2023-07-02T04:42:19;19.6;60.5
78461;SHT31;67755;51.986;5.696;2023-07-02T04:44:48;19.6;60.3
78461;SHT31;67755;51.986;5.696;2023-07-02T04:47:18;19.6;60.8
78461;SHT31;67755;51.986;5.696;2023-07-02T04:49:47;19.6;61.3
78461;SHT31;67755;51.986;5.696;2023-07-02T04:52:17;19.6;60.8
78461;SHT31;67755;51.986;5.696;2023-07-02T04:54:46;19.6;59.4
78461;SHT31;67755;51.986;5.696;2023-07-02T04:57:16;19.6;61.1
78461;SHT31;67755;51.986;5.696;2023-07-02T04:59:45;19.6;61.2
78461;SHT31;67755;51.986;5.696;2023-07-02T05:02:17;19.6;60.7
78461;SHT31;67755;51.986;5.696;2023-07-02T05:04:46;19.6;60.6
78461;SHT31;67755;51.986;5.696;2023-07-02T05:07:17;19.6;60.9
78461;SHT31;67755;51.986;5.696;2023-07-02T05:09:47;19.6;61.1
78461;SHT31;67755;51.986;5.696;2023-07-02T05:12:19;19.6;60.9
78461;SHT31;67755;51.986;5.696;2023-07-02T05:14:49;19.6;60.4
78461;SHT31;67755;51.986;5.696;2023-07-02T05:17:19;19.6;60.7
78461;SHT31;67755;51.986;5.696;2023-07-02T05:19:50;19.6;58.9
78461;SHT31;67755;51.986;5.696;2023-07-02T05:22:20;19.6;60.3
78461;SHT31;67755;51.986;5.696;2023-07-02T05:24:49;19.6;61.7
78461;SHT31;67755;51.986;5.696;2023-07-02T05:27:20;19.6;61.8
78461;SHT31;67755;51.986;5.696;2023-07-02T05:29:50;19.6;62.2
78461;SHT31;67755;51.986;5.696;2023-07-02T05:32:20;19.6;61.0
78461;SHT31;67755;51.986;5.696;2023-07-02T05:34:50;19.6;60.8
78461;SHT31;67755;51.986;5.696;2023-07-02T05:37:20;19.7;61.1
78461;SHT31;67755;51.986;5.696;2023-07-02T05:39:50;19.7;58.5
78461;SHT31;67755;51.986;5.696;2023-07-02T05:42:20;19.7;59.3
78461;SHT31;67755;51.986;5.696;2023-07-02T05:44:50;19.7;60.7
78461;SHT31;67755;51.986;5.696;2023-07-02T05:47:20;19.7;60.8
78461;SHT31;67755;51.986;5.696;2023-07-02T05:49:49;19.7;60.0
78461;SHT31;67755;51.986;5.696;2023-07-02T05:52:19;19.7;59.2
78461;SHT31;67755;51.986;5.696;2023-07-02T05:54:50;19.8;59.3
78461;SHT31;67755;51.986;5.696;2023-07-02T05:57:20;19.8;58.3
78461;SHT31;67755;51.986;5.696;2023-07-02T05:59:50;19.8;58.7
78461;SHT31;67755;51.986;5.696;2023-07-02T06:02:19;19.8;59.8
78461;SHT31;67755;51.986;5.696;2023-07-02T06:04:49;19.8;58.3
78461;SHT31;67755;51.986;5.696;2023-07-02T06:07:18;19.8;59.6
78461;SHT31;67755;51.986;5.696;2023-07-02T06:09:48;19.9;59.1
78461;SHT31;67755;51.986;5.696;2023-07-02T06:12:19;19.9;57.7
78461;SHT31;67755;51.986;5.696;2023-07-02T06:14:49;19.9;57.1
78461;SHT31;67755;51.986;5.696;2023-07-02T06:17:21;19.9;58.2
78461;SHT31;67755;51.986;5.696;2023-07-02T06:19:54;19.9;57.3
78461;SHT31;67755;51.986;5.696;2023-07-02T06:22:23;20.0;58.1
78461;SHT31;67755;51.986;5.696;2023-07-02T06:24:53;20.0;56.8
78461;SHT31;67755;51.986;5.696;2023-07-02T06:27:23;20.0;58.1
78461;SHT31;67755;51.986;5.696;2023-07-02T06:29:52;20.0;58.7
78461;SHT31;67755;51.986;5.696;2023-07-02T06:32:22;20.0;59.0
78461;SHT31;67755;51.986;5.696;2023-07-02T06:34:52;20.1;56.6
78461;SHT31;67755;51.986;5.696;2023-07-02T06:37:21;20.1;57.4
78461;SHT31;67755;51.986;5.696;2023-07-02T06:39:51;20.1;60.1
78461;SHT31;67755;51.986;5.696;2023-07-02T06:42:20;20.1;56.2
78461;SHT31;67755;51.986;5.696;2023-07-02T06:44:50;20.2;56.9
78461;SHT31;67755;51.986;5.696;2023-07-02T06:47:22;20.2;55.5
78461;SHT31;67755;51.986;5.696;2023-07-02T06:49:52;20.2;56.5
78461;SHT31;67755;51.986;5.696;2023-07-02T06:52:24;20.3;54.5
78461;SHT31;67755;51.986;5.696;2023-07-02T06:54:54;20.3;55.0
78461;SHT31;67755;51.986;5.696;2023-07-02T06:57:24;20.3;54.4
78461;SHT31;67755;51.986;5.696;2023-07-02T06:59:57;20.4;54.5
78461;SHT31;67755;51.986;5.696;2023-07-02T07:02:27;20.4;53.7
78461;SHT31;67755;51.986;5.696;2023-07-02T07:04:57;20.4;55.3
78461;SHT31;67755;51.986;5.696;2023-07-02T07:07:26;20.5;56.0
78461;SHT31;67755;51.986;5.696;2023-07-02T07:09:56;20.5;53.4
78461;SHT31;67755;51.986;5.696;2023-07-02T07:12:26;20.5;55.8
78461;SHT31;67755;51.986;5.696;2023-07-02T07:14:55;20.6;54.7
78461;SHT31;67755;51.986;5.696;2023-07-02T07:17:25;20.6;56.2
78461;SHT31;67755;51.986;5.696;2023-07-02T07:19:54;20.6;53.6
78461;SHT31;67755;51.986;5.696;2023-07-02T07:22:26;20.7;53.0
78461;SHT31;67755;51.986;5.696;2023-07-02T07:24:57;20.7;53.3
78461;SHT31;67755;51.986;5.696;2023-07-02T07:27:26;20.8;53.2
78461;SHT31;67755;51.986;5.696;2023-07-02T07:29:56;20.8;54.3
78461;SHT31;67755;51.986;5.696;2023-07-02T07:32:25;20.8;53.5
78461;SHT31;67755;51.986;5.696;2023-07-02T07:34:55;20.8;54.9
78461;SHT31;67755;51.986;5.696;2023-07-02T07:37:24;20.9;54.4
78461;SHT31;67755;51.986;5.696;2023-07-02T07:39:54;20.9;53.9
78461;SHT31;67755;51.986;5.696;2023-07-02T07:42:24;20.9;52.9
78461;SHT31;67755;51.986;5.696;2023-07-02T07:44:54;21.0;52.9
78461;SHT31;67755;51.986;5.696;2023-07-02T07:47:25;21.0;52.5
78461;SHT31;67755;51.986;5.696;2023-07-02T07:49:55;21.0;53.9
78461;SHT31;67755;51.986;5.696;2023-07-02T07:52:24;21.1;52.0
78461;SHT31;67755;51.986;5.696;2023-07-02T07:54:54;21.1;55.3
78461;SHT31;67755;51.986;5.696;2023-07-02T07:57:24;21.1;52.3
78461;SHT31;67755;51.986;5.696;2023-07-02T07:59:54;21.2;54.1
78461;SHT31;67755;51.986;5.696;2023-07-02T08:02:23;21.2;53.0
78461;SHT31;67755;51.986;5.696;2023-07-02T08:04:55;21.2;53.2
78461;SHT31;67755;51.986;5.696;2023-07-02T08:07:25;21.3;51.9
78461;SHT31;67755;51.986;5.696;2023-07-02T08:09:54;21.3;49.8
78461;SHT31;67755;51.986;5.696;2023-07-02T08:12:24;21.4;48.4
78461;SHT31;67755;51.986;5.696;2023-07-02T08:14:54;21.4;47.4
78461;SHT31;67755;51.986;5.696;2023-07-02T08:17:24;21.5;46.6
78461;SHT31;67755;51.986;5.696;2023-07-02T08:19:53;21.5;49.7
78461;SHT31;67755;51.986;5.696;2023-07-02T08:22:25;21.6;49.3
78461;SHT31;67755;51.986;5.696;2023-07-02T08:24:54;21.6;46.9
78461;SHT31;67755;51.986;5.696;2023-07-02T08:27:26;21.7;44.7
78461;SHT31;67755;51.986;5.696;2023-07-02T08:29:55;21.7;45.3
78461;SHT31;67755;51.986;5.696;2023-07-02T08:32:25;21.7;45.8
78461;SHT31;67755;51.986;5.696;2023-07-02T08:34:55;21.7;47.2
78461;SHT31;67755;51.986;5.696;2023-07-02T08:37:24;21.7;48.8
78461;SHT31;67755;51.986;5.696;2023-07-02T08:39:54;21.8;48.4
78461;SHT31;67755;51.986;5.696;2023-07-02T08:42:24;21.8;48.6
78461;SHT31;67755;51.986;5.696;2023-07-02T08:45:01;21.8;49.1
78461;SHT31;67755;51.986;5.696;2023-07-02T08:47:33;21.9;48.3
78461;SHT31;67755;51.986;5.696;2023-07-02T08:50:03;22.0;49.3
78461;SHT31;67755;51.986;5.696;2023-07-02T08:52:33;22.1;46.7
78461;SHT31;67755;51.986;5.696;2023-07-02T08:55:03;22.1;46.4
78461;SHT31;67755;51.986;5.696;2023-07-02T08:57:34;22.2;45.1
78461;SHT31;67755;51.986;5.696;2023-07-02T09:00:08;22.2;46.1
78461;SHT31;67755;51.986;5.696;2023-07-02T09:02:40;22.2;45.6
78461;SHT31;67755;51.986;5.696;2023-07-02T09:05:10;22.2;45.2
78461;SHT31;67755;51.986;5.696;2023-07-02T09:07:47;22.2;42.6
78461;SHT31;67755;51.986;5.696;2023-07-02T09:10:27;22.3;43.0
78461;SHT31;67755;51.986;5.696;2023-07-02T09:13:07;22.3;43.1
78461;SHT31;67755;51.986;5.696;2023-07-02T09:15:38;22.3;42.6
78461;SHT31;67755;51.986;5.696;2023-07-02T09:18:19;22.3;43.7
78461;SHT31;67755;51.986;5.696;2023-07-02T09:20:54;22.4;44.3
78461;SHT31;67755;51.986;5.696;2023-07-02T09:23:37;22.4;42.7
78461;SHT31;67755;51.986;5.696;2023-07-02T09:26:07;22.4;44.2
78461;SHT31;67755;51.986;5.696;2023-07-02T09:28:37;22.5;44.0
78461;SHT31;67755;51.986;5.696;2023-07-02T09:31:06;22.5;43.8
78461;SHT31;67755;51.986;5.696;2023-07-02T09:33:36;22.6;42.3
78461;SHT31;67755;51.986;5.696;2023-07-02T09:36:06;22.7;42.9
78461;SHT31;67755;51.986;5.696;2023-07-02T09:38:37;22.8;40.6
78461;SHT31;67755;51.986;5.696;2023-07-02T09:41:08;22.9;42.6
78461;SHT31;67755;51.986;5.696;2023-07-02T09:43:40;23.0;41.2
78461;SHT31;67755;51.986;5.696;2023-07-02T09:46:10;23.1;41.8
78461;SHT31;67755;51.986;5.696;2023-07-02T09:48:41;23.1;39.7
78461;SHT31;67755;51.986;5.696;2023-07-02T09:51:15;23.2;40.6
78461;SHT31;67755;51.986;5.696;2023-07-02T09:53:44;23.3;41.4
78461;SHT31;67755;51.986;5.696;2023-07-02T09:56:14;23.4;38.3
78461;SHT31;67755;51.986;5.696;2023-07-02T09:58:45;23.5;40.3
78461;SHT31;67755;51.986;5.696;2023-07-02T10:01:15;23.5;39.0
78461;SHT31;67755;51.986;5.696;2023-07-02T10:03:45;23.6;36.6
78461;SHT31;67755;51.986;5.696;2023-07-02T10:06:16;23.7;38.5
78461;SHT31;67755;51.986;5.696;2023-07-02T10:08:54;23.8;36.4
78461;SHT31;67755;51.986;5.696;2023-07-02T10:11:36;23.9;37.9
78461;SHT31;67755;51.986;5.696;2023-07-02T10:14:06;23.9;36.9
78461;SHT31;67755;51.986;5.696;2023-07-02T10:16:52;24.0;35.6
78461;SHT31;67755;51.986;5.696;2023-07-02T10:19:23;24.0;37.4
78461;SHT31;67755;51.986;5.696;2023-07-02T10:22:03;24.0;35.7
78461;SHT31;67755;51.986;5.696;2023-07-02T10:24:35;24.0;36.0
78461;SHT31;67755;51.986;5.696;2023-07-02T10:27:06;24.0;37.5
78461;SHT31;67755;51.986;5.696;2023-07-02T10:29:37;24.1;38.8
78461;SHT31;67755;51.986;5.696;2023-07-02T10:32:08;24.2;36.8
78461;SHT31;67755;51.986;5.696;2023-07-02T10:34:37;24.2;35.4
78461;SHT31;67755;51.986;5.696;2023-07-02T10:37:07;24.3;36.7
78461;SHT31;67755;51.986;5.696;2023-07-02T10:39:39;24.3;39.7
78461;SHT31;67755;51.986;5.696;2023-07-02T10:42:10;24.4;35.7
78461;SHT31;67755;51.986;5.696;2023-07-02T10:44:51;24.4;37.1
78461;SHT31;67755;51.986;5.696;2023-07-02T10:47:21;24.4;36.0
78461;SHT31;67755;51.986;5.696;2023-07-02T10:49:50;24.5;35.0
78461;SHT31;67755;51.986;5.696;2023-07-02T10:52:22;24.5;36.7
78461;SHT31;67755;51.986;5.696;2023-07-02T10:54:51;24.5;35.6
78461;SHT31;67755;51.986;5.696;2023-07-02T10:57:23;24.6;36.7
78461;SHT31;67755;51.986;5.696;2023-07-02T10:59:52;24.6;36.1
78461;SHT31;67755;51.986;5.696;2023-07-02T11:02:22;24.7;35.6
78461;SHT31;67755;51.986;5.696;2023-07-02T11:04:51;24.8;33.6
78461;SHT31;67755;51.986;5.696;2023-07-02T11:07:24;24.8;35.6
78461;SHT31;67755;51.986;5.696;2023-07-02T11:09:53;24.9;35.3
78461;SHT31;67755;51.986;5.696;2023-07-02T11:12:29;24.9;33.0
78461;SHT31;67755;51.986;5.696;2023-07-02T11:15:08;25.0;33.9
78461;SHT31;67755;51.986;5.696;2023-07-02T11:17:39;25.0;33.2
78461;SHT31;67755;51.986;5.696;2023-07-02T11:20:10;25.0;34.4
78461;SHT31;67755;51.986;5.696;2023-07-02T11:22:41;25.0;33.5
78461;SHT31;67755;51.986;5.696;2023-07-02T11:25:16;25.1;33.0
78461;SHT31;67755;51.986;5.696;2023-07-02T11:27:47;25.1;36.2
78461;SHT31;67755;51.986;5.696;2023-07-02T11:30:16;25.1;35.7
78461;SHT31;67755;51.986;5.696;2023-07-02T11:32:51;25.2;33.2
78461;SHT31;67755;51.986;5.696;2023-07-02T11:35:27;25.2;32.3
78461;SHT31;67755;51.986;5.696;2023-07-02T11:37:57;25.2;32.9
78461;SHT31;67755;51.986;5.696;2023-07-02T11:40:27;25.2;34.4
78461;SHT31;67755;51.986;5.696;2023-07-02T11:42:58;25.2;33.0
78461;SHT31;67755;51.986;5.696;2023-07-02T11:45:28;25.2;32.9
78461;SHT31;67755;51.986;5.696;2023-07-02T11:47:57;25.2;33.3
78461;SHT31;67755;51.986;5.696;2023-07-02T11:50:27;25.2;33.8
78461;SHT31;67755;51.986;5.696;2023-07-02T11:52:59;25.2;33.5
78461;SHT31;67755;51.986;5.696;2023-07-02T11:55:30;25.2;32.1
78461;SHT31;67755;51.986;5.696;2023-07-02T11:58:00;25.3;33.7
78461;SHT31;67755;51.986;5.696;2023-07-02T12:00:29;25.3;32.2
78461;SHT31;67755;51.986;5.696;2023-07-02T12:02:59;25.4;31.6
78461;SHT31;67755;51.986;5.696;2023-07-02T12:05:28;25.4;30.8
78461;SHT31;67755;51.986;5.696;2023-07-02T12:08:01;25.4;31.7
78461;SHT31;67755;51.986;5.696;2023-07-02T12:10:31;25.4;32.7
78461;SHT31;67755;51.986;5.696;2023-07-02T12:13:00;25.4;32.0
78461;SHT31;67755;51.986;5.696;2023-07-02T12:15:30;25.5;33.0
78461;SHT31;67755;51.986;5.696;2023-07-02T12:18:00;25.5;32.3
78461;SHT31;67755;51.986;5.696;2023-07-02T12:20:31;25.5;30.0
78461;SHT31;67755;51.986;5.696;2023-07-02T12:23:01;25.5;30.7
78461;SHT31;67755;51.986;5.696;2023-07-02T12:25:32;25.5;30.6
78461;SHT31;67755;51.986;5.696;2023-07-02T12:28:05;25.5;30.0
78461;SHT31;67755;51.986;5.696;2023-07-02T12:30:34;25.5;33.5
78461;SHT31;67755;51.986;5.696;2023-07-02T12:33:05;25.5;32.8
78461;SHT31;67755;51.986;5.696;2023-07-02T12:35:34;25.5;31.5
78461;SHT31;67755;51.986;5.696;2023-07-02T12:38:04;25.5;30.5
78461;SHT31;67755;51.986;5.696;2023-07-02T12:40:35;25.4;31.5
78461;SHT31;67755;51.986;5.696;2023-07-02T12:43:05;25.4;31.1
78461;SHT31;67755;51.986;5.696;2023-07-02T12:45:34;25.4;32.1
78461;SHT31;67755;51.986;5.696;2023-07-02T12:48:06;25.4;32.0
78461;SHT31;67755;51.986;5.696;2023-07-02T12:50:37;25.4;33.6
78461;SHT31;67755;51.986;5.696;2023-07-02T12:53:06;25.4;32.0
78461;SHT31;67755;51.986;5.696;2023-07-02T12:55:36;25.5;33.5
78461;SHT31;67755;51.986;5.696;2023-07-02T12:58:05;25.5;32.7
78461;SHT31;67755;51.986;5.696;2023-07-02T13:00:37;25.5;32.3
78461;SHT31;67755;51.986;5.696;2023-07-02T13:03:10;25.6;33.7
78461;SHT31;67755;51.986;5.696;2023-07-02T13:05:40;25.6;33.5
78461;SHT31;67755;51.986;5.696;2023-07-02T13:08:10;25.6;33.2
78461;SHT31;67755;51.986;5.696;2023-07-02T13:10:42;25.6;32.7
78461;SHT31;67755;51.986;5.696;2023-07-02T13:13:12;25.6;32.3
78461;SHT31;67755;51.986;5.696;2023-07-02T13:15:41;25.6;34.0
78461;SHT31;67755;51.986;5.696;2023-07-02T13:18:13;25.6;31.9
78461;SHT31;67755;51.986;5.696;2023-07-02T13:20:43;25.6;32.5
78461;SHT31;67755;51.986;5.696;2023-07-02T13:23:12;25.6;33.3
78461;SHT31;67755;51.986;5.696;2023-07-02T13:25:44;25.6;34.5
78461;SHT31;67755;51.986;5.696;2023-07-02T13:28:14;25.6;32.3
78461;SHT31;67755;51.986;5.696;2023-07-02T13:30:44;25.6;33.9
78461;SHT31;67755;51.986;5.696;2023-07-02T13:33:15;25.6;34.9
78461;SHT31;67755;51.986;5.696;2023-07-02T13:35:44;25.6;35.8
78461;SHT31;67755;51.986;5.696;2023-07-02T13:38:14;25.6;34.7
78461;SHT31;67755;51.986;5.696;2023-07-02T13:40:46;25.6;33.7
78461;SHT31;67755;51.986;5.696;2023-07-02T13:43:15;25.6;33.4
78461;SHT31;67755;51.986;5.696;2023-07-02T13:45:45;25.6;33.5
78461;SHT31;67755;51.986;5.696;2023-07-02T13:48:15;25.6;34.6
78461;SHT31;67755;51.986;5.696;2023-07-02T13:50:44;25.7;33.2
78461;SHT31;67755;51.986;5.696;2023-07-02T13:53:14;25.7;33.5
78461;SHT31;67755;51.986;5.696;2023-07-02T13:55:44;25.7;34.4
78461;SHT31;67755;51.986;5.696;2023-07-02T13:58:13;25.7;35.1
78461;SHT31;67755;51.986;5.696;2023-07-02T14:00:43;25.7;33.2
78461;SHT31;67755;51.986;5.696;2023-07-02T14:03:13;25.6;33.4
78461;SHT31;67755;51.986;5.696;2023-07-02T14:05:44;25.6;35.3
78461;SHT31;67755;51.986;5.696;2023-07-02T14:08:14;25.6;35.2
78461;SHT31;67755;51.986;5.696;2023-07-02T14:10:45;25.6;35.1
78461;SHT31;67755;51.986;5.696;2023-07-02T14:13:15;25.6;34.1
78461;SHT31;67755;51.986;5.696;2023-07-02T14:15:44;25.6;35.9
78461;SHT31;67755;51.986;5.696;2023-07-02T14:18:14;25.6;35.0
78461;SHT31;67755;51.986;5.696;2023-07-02T14:20:43;25.6;35.5
78461;SHT31;67755;51.986;5.696;2023-07-02T14:23:13;25.6;35.6
78461;SHT31;67755;51.986;5.696;2023-07-02T14:25:42;25.7;34.6
78461;SHT31;67755;51.986;5.696;2023-07-02T14:28:12;25.7;35.4
78461;SHT31;67755;51.986;5.696;2023-07-02T14:30:41;25.7;34.5
78461;SHT31;67755;51.986;5.696;2023-07-02T14:33:13;25.7;35.7
78461;SHT31;67755;51.986;5.696;2023-07-02T14:35:43;25.7;35.7
78461;SHT31;67755;51.986;5.696;2023-07-02T14:38:12;25.7;34.4
78461;SHT31;67755;51.986;5.696;2023-07-02T14:40:42;25.7;34.2
78461;SHT31;67755;51.986;5.696;2023-07-02T14:43:11;25.7;35.4
78461;SHT31;67755;51.986;5.696;2023-07-02T14:45:47;25.8;31.2
78461;SHT31;67755;51.986;5.696;2023-07-02T14:48:17;25.8;32.1
78461;SHT31;67755;51.986;5.696;2023-07-02T14:50:49;25.8;31.7
78461;SHT31;67755;51.986;5.696;2023-07-02T14:53:19;25.8;31.8
78461;SHT31;67755;51.986;5.696;2023-07-02T14:55:49;25.7;32.0
78461;SHT31;67755;51.986;5.696;2023-07-02T14:58:19;25.7;31.5
78461;SHT31;67755;51.986;5.696;2023-07-02T15:00:50;25.7;31.6
78461;SHT31;67755;51.986;5.696;2023-07-02T15:03:22;25.6;31.3
78461;SHT31;67755;51.986;5.696;2023-07-02T15:05:52;25.6;32.5
78461;SHT31;67755;51.986;5.696;2023-07-02T15:08:24;25.6;32.5
78461;SHT31;67755;51.986;5.696;2023-07-02T15:10:53;25.5;33.7
78461;SHT31;67755;51.986;5.696;2023-07-02T15:13:23;25.5;32.2
78461;SHT31;67755;51.986;5.696;2023-07-02T15:15:53;25.5;32.1
78461;SHT31;67755;51.986;5.696;2023-07-02T15:18:22;25.5;31.0
78461;SHT31;67755;51.986;5.696;2023-07-02T15:20:53;25.5;31.1
78461;SHT31;67755;51.986;5.696;2023-07-02T15:23:24;25.5;30.8
78461;SHT31;67755;51.986;5.696;2023-07-02T15:25:56;25.5;31.3
78461;SHT31;67755;51.986;5.696;2023-07-02T15:28:26;25.5;32.8
78461;SHT31;67755;51.986;5.696;2023-07-02T15:30:58;25.5;31.0
78461;SHT31;67755;51.986;5.696;2023-07-02T15:33:28;25.5;31.4
78461;SHT31;67755;51.986;5.696;2023-07-02T15:35:59;25.5;32.5
78461;SHT31;67755;51.986;5.696;2023-07-02T15:38:30;25.5;32.7
78461;SHT31;67755;51.986;5.696;2023-07-02T15:41:07;25.4;32.2
78461;SHT31;67755;51.986;5.696;2023-07-02T15:43:39;25.4;33.0
78461;SHT31;67755;51.986;5.696;2023-07-02T15:46:10;25.4;31.9
78461;SHT31;67755;51.986;5.696;2023-07-02T15:48:40;25.4;33.0
78461;SHT31;67755;51.986;5.696;2023-07-02T15:51:10;25.4;31.8
78461;SHT31;67755;51.986;5.696;2023-07-02T15:53:42;25.3;33.5
78461;SHT31;67755;51.986;5.696;2023-07-02T15:56:14;25.3;32.1
78461;SHT31;67755;51.986;5.696;2023-07-02T15:58:43;25.2;32.7
78461;SHT31;67755;51.986;5.696;2023-07-02T16:01:15;25.2;33.7
78461;SHT31;67755;51.986;5.696;2023-07-02T16:03:46;25.1;33.5
78461;SHT31;67755;51.986;5.696;2023-07-02T16:06:19;25.1;33.2
78461;SHT31;67755;51.986;5.696;2023-07-02T16:08:51;25.1;32.7
78461;SHT31;67755;51.986;5.696;2023-07-02T16:11:20;25.1;33.3
78461;SHT31;67755;51.986;5.696;2023-07-02T16:13:51;25.1;34.2
78461;SHT31;67755;51.986;5.696;2023-07-02T16:16:21;25.1;33.6
78461;SHT31;67755;51.986;5.696;2023-07-02T16:18:53;25.0;33.1
78461;SHT31;67755;51.986;5.696;2023-07-02T16:21:22;25.0;34.5
78461;SHT31;67755;51.986;5.696;2023-07-02T16:23:52;25.0;34.5